Latest Weather Observations for Woolshed

IDQ60801

Issued at 11:02 pm EST Wednesday 1 April 2015 (issued every 30 minutes, with the page automatically refreshed every 10 minutes)

About weather observations | Map of weather stations | Latest weather observations for QLD | Other Formats
Station Details ID: 033307 Name: WOOLSHED Lat: -19.42 Lon: 146.54 Height: 556.04 m
Data from the previous 72 hours. | See also: Recent months at Woolshed
Date/Time
EST
Temp
°C
App
Temp
°C
Dew
Point
Rel
Hum
%
Delta-T
°C
Wind Press
QNH
hPa
Press
MSL
hPa
Rain
since 9 am
mm
Dir
 
Spd
km/h
Gust
km/h
Spd
kts
Gust
kts
01/11:00pm 20.6 23.7 19.4 93 0.8 ENE 2 6 1 3 1016.7 1013.8 0.2
01/10:30pm 21.1 23.5 19.6 91 1.0 NE 6 9 3 5 1016.6 1013.6 0.2
01/10:00pm 21.1 23.7 20.1 94 0.7 ENE 6 9 3 5 1016.8 1013.9 0.2
01/09:30pm 21.5 24.4 20.7 95 0.5 NE 6 11 3 6 1016.9 1014.0 0.2
01/09:00pm 21.8 24.6 20.8 94 0.7 NE 7 15 4 8 1016.9 1014.0 0.2
01/08:30pm 22.0 24.9 21.0 94 0.7 NE 7 13 4 7 1016.6 1013.6 0.2
01/08:00pm 22.1 25.0 21.1 94 0.7 NE 7 13 4 7 1016.3 1013.3 0.2
01/07:30pm 22.1 25.0 20.7 92 0.9 NE 6 11 3 6 1015.9 1013.0 0.2
01/07:00pm 22.1 24.7 20.4 90 1.1 NE 7 13 4 7 1015.6 1012.7 0.2
01/06:30pm 22.1 24.7 20.4 90 1.1 NE 7 13 4 7 1015.5 1012.6 0.2
01/06:00pm 22.7 25.4 20.6 88 1.4 NE 7 15 4 8 1015.1 1012.2 0.2
01/05:30pm 23.0 25.2 20.5 86 1.7 NNE 9 19 5 10 1014.9 1011.9 0.2
01/05:00pm 24.9 27.7 20.8 78 2.7 N 7 15 4 8 1014.7 1011.7 0.2
01/04:30pm 25.5 27.2 20.1 72 3.6 NNE 11 19 6 10 1014.5 1011.5 0.2
01/04:00pm 26.9 28.7 19.5 64 4.9 NNE 9 15 5 8 1014.4 1011.4 0.2
01/03:30pm 26.3 28.3 18.7 63 5.0 NE 6 13 3 7 1014.4 1011.4 0.2
01/03:00pm 27.2 28.6 17.9 56 6.0 NE 7 15 4 8 1014.7 1011.7 0.2
01/02:30pm 26.7 28.0 17.2 56 6.1 N 6 11 3 6 1015.0 1012.0 0.2
01/02:00pm 26.7 28.3 17.8 58 5.7 NE 6 11 3 6 1015.2 1012.3 0.2
01/01:30pm 26.2 27.8 17.8 60 5.4 E 6 11 3 6 1015.7 1012.8 0.2
01/01:00pm 27.5 29.5 18.8 59 5.7 NE 6 11 3 6 1016.0 1013.1 0.2
01/12:30pm 26.9 28.5 17.9 57 5.8 SE 6 15 3 8 1016.7 1013.8 0.2
01/12:00pm 25.9 27.3 17.3 59 5.5 E 6 11 3 6 1017.2 1014.3 0.0
01/11:30am 26.1 27.9 18.8 64 4.8 SE 7 13 4 7 1017.8 1014.9 0.0
01/11:00am 24.9 26.4 18.1 66 4.4 E 7 15 4 8 1018.4 1015.5 0.0
01/10:30am 24.9 26.3 18.6 68 4.1 E 9 19 5 10 1018.7 1015.8 0.0
01/10:00am 23.8 25.3 18.9 74 3.2 ESE 9 17 5 9 1018.9 1016.0 0.0
01/09:30am 24.0 25.6 19.1 74 3.2 SE 9 19 5 10 1019.0 1015.7 0.0
01/09:00am 22.8 24.3 18.8 78 2.6 SE 9 15 5 8 1018.9 1015.6 9.4
01/08:30am 22.6 24.4 18.8 79 2.5 ESE 7 17 4 9 1018.7 1015.4 9.4
01/08:00am 21.3 23.3 19.2 88 1.4 SE 7 17 4 9 1018.5 1015.2 9.4
01/07:30am 20.3 21.8 18.8 91 1.0 SE 9 26 5 14 1018.2 1014.8 9.4
01/07:00am 20.1 21.3 19.1 94 0.6 ESE 11 20 6 11 1017.8 1014.5 9.4
01/06:30am 19.9 21.4 18.9 94 0.6 SE 9 19 5 10 1017.6 1014.3 9.4
01/06:00am 19.7 21.6 18.9 95 0.5 SE 7 15 4 8 1017.3 1014.0 9.4
01/05:30am 19.7 21.8 19.0 96 0.4 SE 6 11 3 6 1017.2 1013.9 9.4
01/05:00am 19.7 21.8 19.0 96 0.4 SE 6 11 3 6 1016.8 1013.5 9.4
01/04:30am 20.0 22.7 19.5 97 0.3 SE 4 7 2 4 1016.6 1013.2 9.4
01/04:00am 20.0 22.8 19.7 98 0.2 SE 4 7 2 4 1016.5 1013.1 9.4
01/03:30am 18.9 21.8 18.2 96 0.4 CALM 0 2 0 1 1016.7 1013.3 9.4
01/03:00am 19.3 22.5 18.8 97 0.3 CALM 0 4 0 2 1016.7 1013.3 9.4
01/02:30am 18.8 21.3 18.1 96 0.4 SSE 2 4 1 2 1017.2 1013.9 9.4
01/02:00am 19.1 22.1 18.4 96 0.4 CALM 0 0 0 0 1017.4 1014.1 9.4
01/01:30am 19.3 22.3 18.5 95 0.5 CALM 0 0 0 0 1017.4 1014.1 9.4
01/01:00am 20.0 23.3 19.0 94 0.6 CALM 0 4 0 2 1017.8 1014.5 9.4
01/12:30am 20.3 23.2 19.0 92 0.8 E 2 7 1 4 1018.2 1014.8 9.4
01/12:00am 20.7 22.6 19.0 90 1.1 E 7 11 4 6 1018.3 1014.9 9.4
 
Date/Time
EST
Temp
°C
App
Temp
°C
Dew
Point
Rel
Hum
%
Delta-T
°C
Wind Press
QNH
hPa
Press
MSL
hPa
Rain
since 9 am
mm
Dir
 
Spd
km/h
Gust
km/h
Spd
kts
Gust
kts
31/11:30pm 20.2 22.3 19.4 95 0.5 E 7 15 4 8 1018.8 1015.5 9.4
31/11:00pm 20.1 22.3 19.6 97 0.3 ESE 7 17 4 9 1019.3 1016.0 9.4
31/10:30pm 20.1 22.2 19.3 95 0.5 SE 7 19 4 10 1019.5 1016.2 9.2
31/10:00pm 20.2 22.0 19.5 96 0.5 ESE 9 20 5 11 1019.9 1016.6 8.8
31/09:30pm 20.3 22.1 19.5 95 0.5 SSE 9 20 5 11 1019.7 1016.4 8.6
31/09:00pm 20.8 23.2 20.0 95 0.5 SE 7 15 4 8 1019.7 1016.4 6.4
31/08:30pm 22.3 25.1 21.5 95 0.5 NE 9 15 5 8 1018.8 1015.5 2.8
31/08:00pm 22.5 25.2 21.3 93 0.8 NE 9 17 5 9 1018.4 1015.1 2.2
31/07:30pm 22.5 25.0 21.1 92 0.9 NE 9 20 5 11 1018.2 1014.8 2.2
31/07:00pm 22.7 26.0 21.5 93 0.8 NE 6 13 3 7 1017.8 1014.5 2.2
31/06:30pm 22.8 26.0 21.3 91 1.0 NNE 6 13 3 7 1017.5 1014.2 2.2
31/06:00pm 23.0 25.9 21.1 89 1.3 N 7 17 4 9 1017.1 1013.8 2.2
31/05:30pm 23.1 25.7 21.2 89 1.3 NNE 9 15 5 8 1016.9 1013.6 2.0
31/05:00pm 24.0 26.2 20.5 81 2.3 NNE 9 20 5 11 1016.7 1013.3 0.8
31/04:30pm 26.3 27.9 19.9 68 4.2 NNE 11 19 6 10 1016.4 1013.0 0.0
31/04:00pm 27.4 29.3 20.5 66 4.6 NNE 11 20 6 11 1016.1 1012.8 0.0
31/03:30pm 26.9 29.8 20.7 69 4.2 NNE 6 9 3 5 1016.1 1012.8 0.0
31/03:00pm 26.9 28.7 20.3 67 4.4 NNE 11 17 6 9 1016.3 1012.9 0.0
31/02:30pm 26.2 27.3 18.9 64 4.8 NE 11 17 6 9 1016.7 1013.3 0.0
31/02:00pm 25.5 27.6 19.4 69 4.0 ENE 7 17 4 9 1017.1 1013.8 0.0
31/01:30pm 26.6 28.4 18.7 62 5.2 NE 7 17 4 9 1017.5 1014.2 0.0
31/01:00pm 27.5 28.4 16.5 51 7.0 E 7 17 4 9 1017.9 1014.6 0.0
31/12:30pm 28.3 28.9 16.9 50 7.3 ENE 9 17 5 9 1018.5 1015.2 0.0
31/12:00pm 28.1 28.3 16.7 50 7.3 ENE 11 24 6 13 1019.1 1015.8 0.0
31/11:30am 27.8 29.2 17.9 54 6.4 NE 7 19 4 10 1019.7 1016.4 0.0
31/11:00am 27.2 28.0 18.2 58 5.8 ENE 11 20 6 11 1020.3 1017.0 0.0
31/10:30am 26.1 28.0 19.0 65 4.6 E 7 13 4 7 1020.6 1017.3 0.0
31/10:00am 26.2 28.1 18.9 64 4.8 E 7 17 4 9 1020.8 1017.5 0.0
31/09:30am 24.9 27.1 19.5 72 3.5 E 7 13 4 7 1020.8 1017.5 0.0
31/09:00am 24.2 26.5 19.5 75 3.1 SE 6 9 3 5 1020.8 1017.5 0.0
31/08:30am 22.7 25.1 20.0 85 1.8 ESE 7 13 4 7 1020.5 1017.2 0.0
31/08:00am 21.9 24.7 20.4 91 1.0 ESE 6 9 3 5 1020.3 1017.0 0.0
31/07:30am 20.9 24.3 20.2 96 0.5 E 2 6 1 3 1019.8 1016.5 0.0
31/07:00am 20.0 22.7 19.5 97 0.3 ESE 4 9 2 5 1019.3 1016.0 0.0
31/06:30am 19.7 22.2 19.0 96 0.4 ESE 4 6 2 3 1018.6 1015.3 0.0
31/06:00am 19.8 22.4 19.3 97 0.3 E 4 7 2 4 1018.6 1015.3 0.0
31/05:30am 19.8 22.7 19.0 95 0.5 E 2 9 1 5 1018.4 1015.1 0.0
31/05:00am 20.0 22.6 19.2 95 0.5 E 4 9 2 5 1018.2 1014.8 0.0
31/04:30am 20.4 23.1 19.4 94 0.6 E 4 9 2 5 1018.2 1014.8 0.0
31/04:00am 20.4 23.2 19.7 96 0.5 E 4 11 2 6 1018.0 1014.7 0.0
31/03:30am 19.8 22.9 18.6 93 0.8 CALM 0 2 0 1 1018.0 1014.7 0.0
31/03:00am 20.9 23.1 19.2 90 1.1 E 6 13 3 7 1018.3 1014.9 0.0
31/02:30am 21.1 23.5 19.6 91 1.0 ENE 6 20 3 11 1018.5 1015.2 0.0
31/02:00am 21.0 22.7 19.3 90 1.1 ENE 9 15 5 8 1018.7 1015.4 0.0
31/01:30am 20.9 22.8 19.0 89 1.2 NE 7 13 4 7 1018.9 1015.6 0.0
31/01:00am 21.1 23.0 18.5 85 1.7 NE 6 9 3 5 1019.3 1016.0 0.0
31/12:30am 21.1 23.2 18.9 87 1.4 ENE 6 11 3 6 1019.8 1016.5 0.0
31/12:00am 21.2 23.5 19.5 90 1.1 ENE 6 9 3 5 1020.3 1017.0 0.0
 
Date/Time
EST
Temp
°C
App
Temp
°C
Dew
Point
Rel
Hum
%
Delta-T
°C
Wind Press
QNH
hPa
Press
MSL
hPa
Rain
since 9 am
mm
Dir
 
Spd
km/h
Gust
km/h
Spd
kts
Gust
kts
30/11:30pm 21.4 23.5 19.3 88 1.4 NE 7 17 4 9 1020.5 1017.2 0.0
30/11:00pm 21.6 23.8 19.5 88 1.4 NE 7 13 4 7 1020.7 1017.4 0.0
30/10:30pm 21.9 24.1 19.6 87 1.5 NE 7 13 4 7 1020.8 1017.5 0.0
30/10:00pm 22.2 24.4 19.6 85 1.7 NE 7 15 4 8 1021.0 1017.7 0.0
30/09:30pm 22.4 24.6 19.6 84 1.8 ENE 7 17 4 9 1021.0 1017.7 0.0
30/09:00pm 22.3 24.4 19.3 83 1.9 NE 7 15 4 8 1021.0 1017.7 0.0
30/08:30pm 22.6 24.1 19.0 80 2.3 ENE 9 15 5 8 1020.8 1017.5 0.0
30/08:00pm 22.4 24.5 19.0 81 2.2 NE 6 15 3 8 1020.6 1017.3 0.0
30/07:30pm 22.8 24.8 19.2 80 2.3 NE 7 13 4 7 1020.3 1017.0 0.0
30/07:00pm 22.8 25.4 19.2 80 2.3 NNE 4 9 2 5 1019.8 1016.5 0.0
30/06:30pm 23.5 25.4 19.0 76 2.9 NE 7 15 4 8 1019.7 1016.4 0.0
30/06:00pm 24.2 25.6 19.5 75 3.1 NE 11 22 6 12 1019.3 1016.0 0.0
30/05:30pm 25.1 26.2 18.8 68 4.1 NNE 11 20 6 11 1018.9 1015.6 0.0
30/05:00pm 26.2 27.3 18.1 61 5.2 NNE 9 17 5 9 1018.8 1015.5 0.0
30/04:30pm 26.9 27.2 17.1 55 6.3 NNE 11 20 6 11 1018.5 1015.2 0.0
30/04:00pm 27.5 27.7 16.8 52 6.8 NNE 11 20 6 11 1018.5 1015.2 0.0
30/03:30pm 27.7 28.1 17.3 53 6.7 NE 11 24 6 13 1018.3 1014.9 0.0
30/03:00pm 27.6 28.6 18.6 58 5.9 NE 11 22 6 12 1018.0 1014.7 0.0
30/02:30pm 27.7 28.0 17.8 54 6.4 NNE 13 30 7 16 1018.0 1014.7 0.0
30/02:00pm 27.6 28.2 17.7 54 6.4 NE 11 20 6 11 1018.4 1015.1 0.0
30/01:30pm 27.4 28.0 17.6 55 6.3 NE 11 19 6 10 1018.6 1015.3 0.0
30/01:00pm 27.0 26.4 14.7 47 7.6 ENE 11 20 6 11 1019.0 1015.7 0.0
30/12:30pm 27.5 27.8 16.1 49 7.2 E 9 19 5 10 1019.5 1016.2 0.0
30/12:00pm 28.8 29.1 16.0 45 8.1 E 9 22 5 12 1019.9 1016.6 0.0
30/11:30am 28.5 28.8 16.1 47 7.8 E 9 20 5 11 1020.7 1017.4 0.0
30/11:00am 26.5 27.3 17.3 57 5.9 E 9 20 5 11 1021.2 1017.9 0.0
30/10:30am 26.5 27.4 17.6 58 5.7 E 9 20 5 11 1021.4 1018.1 0.0
30/10:00am 25.6 26.7 18.0 63 4.9 ESE 9 19 5 10 1021.7 1018.5 0.0
30/09:30am 23.8 25.5 19.3 76 2.9 ESE 9 15 5 8 1021.8 1018.6 0.0
30/09:00am 23.2 26.0 19.6 80 2.4 SE 4 9 2 5 1021.7 1018.5 0.0
30/08:30am 22.4 24.6 19.2 82 2.1 ESE 6 13 3 7 1021.4 1018.1 0.0
30/08:00am 22.1 24.3 19.3 84 1.8 ESE 6 11 3 6 1020.9 1017.6 0.0
30/07:30am 21.5 23.5 19.2 87 1.5 E 7 15 4 8 1020.2 1016.9 0.0
30/07:00am 20.8 22.9 18.9 89 1.2 E 6 15 3 8 1019.9 1016.6 0.0
30/06:30am 20.4 22.1 18.5 89 1.2 E 7 17 4 9 1019.7 1016.4 0.0
30/06:00am 20.4 22.2 18.7 90 1.1 E 7 15 4 8 1019.6 1016.3 0.0
30/05:30am 20.3 22.3 18.8 91 1.0 E 6 11 3 6 1019.4 1016.1 0.0
30/05:00am 20.3 22.7 18.8 91 1.0 ESE 4 9 2 5 1019.2 1015.9 0.0
30/04:30am 20.3 22.2 18.6 90 1.1 E 6 9 3 5 1018.8 1015.5 0.0
30/04:00am 20.6 22.6 18.7 89 1.2 E 6 13 3 7 1018.8 1015.5 0.0
30/03:30am 20.4 22.6 18.3 88 1.3 E 4 9 2 5 1018.8 1015.5 0.0
30/03:00am 20.4 22.2 18.3 88 1.3 E 6 11 3 6 1019.0 1015.7 0.0
30/02:30am 20.5 22.3 18.4 88 1.3 E 6 9 3 5 1019.0 1015.7 0.0
30/02:00am 20.7 22.6 18.5 87 1.4 E 6 13 3 7 1019.4 1016.1 0.0
30/01:30am 20.7 23.0 18.5 87 1.4 E 4 7 2 4 1019.8 1016.5 0.0
30/01:00am 21.0 23.3 18.6 86 1.5 E 4 7 2 4 1020.1 1016.8 0.0
30/12:30am 21.3 23.6 18.5 84 1.8 ENE 4 7 2 4 1020.4 1017.1 0.0
30/12:00am 21.5 23.4 18.5 83 1.9 ENE 6 9 3 5 1020.7 1017.4 0.0
 
Date/Time
EST
Temp
°C
App
Temp
°C
Dew
Point
Rel
Hum
%
Delta-T
°C
Wind Press
QNH
hPa
Press
MSL
hPa
Rain
since 9 am
mm
Dir
 
Spd
km/h
Gust
km/h
Spd
kts
Gust
kts
29/11:30pm 21.8 23.6 18.8 83 1.9 NE 7 13 4 7 1020.8 1017.5 0.0

Other Formats:

Comma delimited format used in spreadsheet applications
http://www.bom.gov.au/fwo/IDQ60801/IDQ60801.95293.axf

JavaScript Object Notation format (JSON) in row-major order
http://www.bom.gov.au/fwo/IDQ60801/IDQ60801.95293.json